Jrs Capella — 5BER4 — position and weather

sailwx.info

Track history (hours):
 
Tides and Currents Weather Stations Pressure Air Temp Water Temp Dewpoint Dewpoint Depression Visibility Wind Speed Wind Dir Waves Ship Positions

Jrs Capella

Last reported at 2017-Sep-19 19:00 UTC. Time now 2017-Sep-19 19:09 UTC.
Position N 28°55' W 015°16'.

Length 130 m; draft 6.4 m.

Type: Cargo ship. MMSI: 212339000.

Date/timePositionNaut miles runAvg speedWind from/ knotsBaromVisibWave heightAir tempDewpointWater temp
2017-Sep-19 19:00N 28°55' W 015°16'815.5
2017-Sep-19 18:30N 28°50' W 015°22'815.4
2017-Sep-19 18:00N 28°45' W 015°28'815.3
2017-Sep-19 17:30N 28°39' W 015°35'815.3
2017-Sep-19 17:00N 28°34' W 015°41'815.2
2017-Sep-19 16:30N 28°28' W 015°47'815.2
2017-Sep-19 16:00N 28°23' W 015°53'815.0
2017-Sep-19 15:29N 28°25' W 016°02'815.3
2017-Sep-19 15:00N 28°27' W 016°10'4 7.5
2017-Sep-19 14:30N 28°29' W 016°13'0 0.0
2017-Sep-19 14:00N 28°29' W 016°13'0 0.0
2017-Sep-19 13:30N 28°29' W 016°13'0 0.0
2017-Sep-19 13:00N 28°29' W 016°13'0 0.0
2017-Sep-19 12:30N 28°29' W 016°13'0 0.0
2017-Sep-19 12:00N 28°29' W 016°13'0 0.0
2017-Sep-19 11:30N 28°29' W 016°13'0 0.0
2017-Sep-19 11:00N 28°29' W 016°13'0 0.0
2017-Sep-19 10:30N 28°29' W 016°13'0 0.0
2017-Sep-19 10:00N 28°29' W 016°13'0 0.0
2017-Sep-19 09:30N 28°29' W 016°13'0 0.0
2017-Sep-19 09:00N 28°29' W 016°13'0 0.0
2017-Sep-19 08:30N 28°29' W 016°13'0 0.0
2017-Sep-19 08:00N 28°29' W 016°13'0 0.0
2017-Sep-19 07:30N 28°29' W 016°13'0 0.0
2017-Sep-19 07:00N 28°29' W 016°13'0 0.0
2017-Sep-19 06:30N 28°29' W 016°13'0 0.0
2017-Sep-19 06:00N 28°29' W 016°13'0 0.0
2017-Sep-19 05:30N 28°29' W 016°13'0 0.0
2017-Sep-19 05:00N 28°29' W 016°13'0 0.0
2017-Sep-19 04:30N 28°29' W 016°13'0 0.0
2017-Sep-19 04:00N 28°29' W 016°13'0 0.0
2017-Sep-19 03:30N 28°29' W 016°13'0 0.0
2017-Sep-19 03:00N 28°29' W 016°13'0 0.0
2017-Sep-19 02:30N 28°29' W 016°13'1 1.8
2017-Sep-19 02:00N 28°29' W 016°14'4 7.5
2017-Sep-19 01:31N 28°25' W 016°13'1 1.2
2017-Sep-19 01:00N 28°25' W 016°13'1 1.0
2017-Sep-19 00:28N 28°26' W 016°12'0 0.9
2017-Sep-19 00:00N 28°26' W 016°12'1 0.9
2017-Sep-18 23:25N 28°26' W 016°11'1 1.1
2017-Sep-18 22:52N 28°26' W 016°10'0 1.1
2017-Sep-18 22:30N 28°27' W 016°10'1 1.0
2017-Sep-18 22:00N 28°27' W 016°10'1 1.0
2017-Sep-18 21:27N 28°27' W 016°09'1 1.1
2017-Sep-18 20:54N 28°27' W 016°08'0 1.1
2017-Sep-18 20:29N 28°27' W 016°08'1 1.3
2017-Sep-18 19:57N 28°27' W 016°07'1 1.4
2017-Sep-18 19:29N 28°28' W 016°06'1 1.5
2017-Sep-18 18:59N 28°28' W 016°06'1 1.7
2017-Sep-18 18:28N 28°28' W 016°05'3 6.7
2017-Sep-18 17:58N 28°25' W 016°02'510.4
2017-Sep-18 17:30N 28°22' W 015°58'510.2
2017-Sep-18 17:00N 28°20' W 015°53'611.1
2017-Sep-18 16:30N 28°19' W 015°47'815.9
2017-Sep-18 16:00N 28°18' W 015°38'816.3
2017-Sep-18 15:30N 28°16' W 015°29'714.9
2017-Sep-18 15:00N 28°12' W 015°22'510.7
2017-Sep-18 14:30N 28°08' W 015°24'1 2.4
2017-Sep-18 14:00N 28°09' W 015°25'0 0.0
2017-Sep-18 13:30N 28°09' W 015°25'0 0.0
2017-Sep-18 13:00N 28°09' W 015°25'0 0.0
2017-Sep-18 12:30N 28°09' W 015°25'0 0.0
2017-Sep-18 12:00N 28°09' W 015°25'0 0.0
2017-Sep-18 11:30N 28°09' W 015°25'0 0.0
2017-Sep-18 11:00N 28°09' W 015°25'0 0.0
2017-Sep-18 10:30N 28°09' W 015°25'0 0.0
2017-Sep-18 10:00N 28°09' W 015°25'0 0.0
2017-Sep-18 09:30N 28°09' W 015°25'0 0.0
2017-Sep-18 09:00N 28°09' W 015°25'0 0.0
2017-Sep-18 08:30N 28°09' W 015°25'0 0.0
2017-Sep-18 08:00N 28°09' W 015°25'0 0.0
2017-Sep-18 07:30N 28°09' W 015°25'0 0.1
2017-Sep-18 07:00N 28°09' W 015°25'3 5.4
2017-Sep-18 06:30N 28°06' W 015°23'0 0.9
2017-Sep-18 06:00N 28°07' W 015°23'4 8.5
2017-Sep-18 05:30N 28°08' W 015°18'612.1
2017-Sep-18 05:00N 28°09' W 015°11'611.8
2017-Sep-18 04:30N 28°10' W 015°04'510.9
2017-Sep-18 04:00N 28°13' W 014°59'611.9
2017-Sep-18 03:30N 28°18' W 014°57'612.0
2017-Sep-18 03:00N 28°23' W 014°53'611.5
2017-Sep-18 02:30N 28°28' W 014°49'611.8
2017-Sep-18 02:00N 28°32' W 014°44'713.9
2017-Sep-18 01:30N 28°37' W 014°39'713.8
2017-Sep-18 01:00N 28°43' W 014°34'713.5
2017-Sep-18 00:30N 28°48' W 014°30'713.6
2017-Sep-17 23:58N 28°54' W 014°24'713.7
2017-Sep-17 23:29N 28°59' W 014°20'713.6
2017-Sep-17 23:00N 29°04' W 014°15'714.0
2017-Sep-17 22:30N 29°09' W 014°10'714.0
2017-Sep-17 21:59N 29°15' W 014°04'714.2
2017-Sep-17 21:29N 29°20' W 013°59'714.1
2017-Sep-17 21:00N 29°26' W 013°54'714.3
2017-Sep-17 20:30N 29°31' W 013°49'  
2017-Sep-14 20:07N 36°54' W 006°21'76 1.9
2017-Sep-13 03:43N 35°45' W 006°60'312.0
2017-Sep-13 03:30N 35°42' W 007°00'1512.5
2017-Sep-13 02:17N 35°27' W 007°04'1712.6
2017-Sep-13 00:58N 35°11' W 007°09'612.7
2017-Sep-13 00:31N 35°05' W 007°10'612.7
2017-Sep-13 00:01N 34°59' W 007°13'612.6
2017-Sep-12 23:30N 34°53' W 007°14'4912.3
2017-Sep-12 19:31N 34°06' W 007°29'011.7
2017-Sep-12 19:29N 34°05' W 007°29'143 5.5
2017-Sep-11 17:26N 32°39' W 009°45'33710.3
2017-Sep-10 08:46N 29°09' W 014°52'410.4
2017-Sep-10 08:24N 29°07' W 014°56'510.2
2017-Sep-10 07:54N 29°03' W 015°00'410.0
2017-Sep-10 07:27N 29°00' W 015°04'5 9.9
2017-Sep-10 06:56N 28°57' W 015°09'5 9.9
2017-Sep-10 06:29N 28°55' W 015°13'510.0
2017-Sep-10 06:00N 28°52' W 015°17'5 9.8
2017-Sep-10 05:30N 28°49' W 015°22'510.0
2017-Sep-10 05:00N 28°46' W 015°26'510.0
2017-Sep-10 04:30N 28°43' W 015°31'5 9.9
2017-Sep-10 04:00N 28°39' W 015°35'510.0
2017-Sep-10 03:30N 28°36' W 015°39'510.1
2017-Sep-10 03:00N 28°33' W 015°43'510.0
2017-Sep-10 02:30N 28°29' W 015°47'5 9.7
2017-Sep-10 02:00N 28°25' W 015°51'4 9.0
2017-Sep-10 01:30N 28°23' W 015°55'5 9.9
2017-Sep-10 01:00N 28°23' W 016°00'510.3
2017-Sep-10 00:30N 28°25' W 016°06'510.7
2017-Sep-10 00:00N 28°27' W 016°11'3 4.5
2017-Sep-09 23:24N 28°29' W 016°13'0 0.0
2017-Sep-09 22:57N 28°29' W 016°13'0 0.0
2017-Sep-09 22:27N 28°29' W 016°13'0 0.0
2017-Sep-09 21:54N 28°29' W 016°13'0 0.0
2017-Sep-09 21:24N 28°29' W 016°13'0 0.0
2017-Sep-09 20:57N 28°29' W 016°13'0 0.0
2017-Sep-09 20:24N 28°29' W 016°13'0 0.0
2017-Sep-09 19:57N 28°29' W 016°13'0 0.0
2017-Sep-09 19:30N 28°29' W 016°13'  
Track history (hours):
 
Tides and Currents Weather Stations Pressure Air Temp Water Temp Dewpoint Dewpoint Depression Visibility Wind Speed Wind Dir Waves Ship Positions

Jrs Capella

Last reported at 2017-Sep-19 19:00 UTC. Time now 2017-Sep-19 19:09 UTC.
Position N 28°55' W 015°16'.

Length 130 m; draft 6.4 m.

Type: Cargo ship. MMSI: 212339000.

Date/timePositionNaut miles runAvg speedWind from/ knotsBaromVisibWave heightAir tempDewpointWater temp
2017-Sep-19 19:00N 28°55' W 015°16'815.5
2017-Sep-19 18:30N 28°50' W 015°22'815.4
2017-Sep-19 18:00N 28°45' W 015°28'815.3
2017-Sep-19 17:30N 28°39' W 015°35'815.3
2017-Sep-19 17:00N 28°34' W 015°41'815.2
2017-Sep-19 16:30N 28°28' W 015°47'815.2
2017-Sep-19 16:00N 28°23' W 015°53'815.0
2017-Sep-19 15:29N 28°25' W 016°02'815.3
2017-Sep-19 15:00N 28°27' W 016°10'4 7.5
2017-Sep-19 14:30N 28°29' W 016°13'0 0.0
2017-Sep-19 14:00N 28°29' W 016°13'0 0.0
2017-Sep-19 13:30N 28°29' W 016°13'0 0.0
2017-Sep-19 13:00N 28°29' W 016°13'0 0.0
2017-Sep-19 12:30N 28°29' W 016°13'0 0.0
2017-Sep-19 12:00N 28°29' W 016°13'0 0.0
2017-Sep-19 11:30N 28°29' W 016°13'0 0.0
2017-Sep-19 11:00N 28°29' W 016°13'0 0.0
2017-Sep-19 10:30N 28°29' W 016°13'0 0.0
2017-Sep-19 10:00N 28°29' W 016°13'0 0.0
2017-Sep-19 09:30N 28°29' W 016°13'0 0.0
2017-Sep-19 09:00N 28°29' W 016°13'0 0.0
2017-Sep-19 08:30N 28°29' W 016°13'0 0.0
2017-Sep-19 08:00N 28°29' W 016°13'0 0.0
2017-Sep-19 07:30N 28°29' W 016°13'0 0.0
2017-Sep-19 07:00N 28°29' W 016°13'0 0.0
2017-Sep-19 06:30N 28°29' W 016°13'0 0.0
2017-Sep-19 06:00N 28°29' W 016°13'0 0.0
2017-Sep-19 05:30N 28°29' W 016°13'0 0.0
2017-Sep-19 05:00N 28°29' W 016°13'0 0.0
2017-Sep-19 04:30N 28°29' W 016°13'0 0.0
2017-Sep-19 04:00N 28°29' W 016°13'0 0.0
2017-Sep-19 03:30N 28°29' W 016°13'0 0.0
2017-Sep-19 03:00N 28°29' W 016°13'0 0.0
2017-Sep-19 02:30N 28°29' W 016°13'1 1.8
2017-Sep-19 02:00N 28°29' W 016°14'4 7.5
2017-Sep-19 01:31N 28°25' W 016°13'1 1.2
2017-Sep-19 01:00N 28°25' W 016°13'1 1.0
2017-Sep-19 00:28N 28°26' W 016°12'0 0.9
2017-Sep-19 00:00N 28°26' W 016°12'1 0.9
2017-Sep-18 23:25N 28°26' W 016°11'1 1.1
2017-Sep-18 22:52N 28°26' W 016°10'0 1.1
2017-Sep-18 22:30N 28°27' W 016°10'1 1.0
2017-Sep-18 22:00N 28°27' W 016°10'1 1.0
2017-Sep-18 21:27N 28°27' W 016°09'1 1.1
2017-Sep-18 20:54N 28°27' W 016°08'0 1.1
2017-Sep-18 20:29N 28°27' W 016°08'1 1.3
2017-Sep-18 19:57N 28°27' W 016°07'1 1.4
2017-Sep-18 19:29N 28°28' W 016°06'1 1.5
2017-Sep-18 18:59N 28°28' W 016°06'1 1.7
2017-Sep-18 18:28N 28°28' W 016°05'3 6.7
2017-Sep-18 17:58N 28°25' W 016°02'510.4
2017-Sep-18 17:30N 28°22' W 015°58'510.2
2017-Sep-18 17:00N 28°20' W 015°53'611.1
2017-Sep-18 16:30N 28°19' W 015°47'815.9
2017-Sep-18 16:00N 28°18' W 015°38'816.3
2017-Sep-18 15:30N 28°16' W 015°29'714.9
2017-Sep-18 15:00N 28°12' W 015°22'510.7
2017-Sep-18 14:30N 28°08' W 015°24'1 2.4
2017-Sep-18 14:00N 28°09' W 015°25'0 0.0
2017-Sep-18 13:30N 28°09' W 015°25'0 0.0
2017-Sep-18 13:00N 28°09' W 015°25'0 0.0
2017-Sep-18 12:30N 28°09' W 015°25'0 0.0
2017-Sep-18 12:00N 28°09' W 015°25'0 0.0
2017-Sep-18 11:30N 28°09' W 015°25'0 0.0
2017-Sep-18 11:00N 28°09' W 015°25'0 0.0
2017-Sep-18 10:30N 28°09' W 015°25'0 0.0
2017-Sep-18 10:00N 28°09' W 015°25'0 0.0
2017-Sep-18 09:30N 28°09' W 015°25'0 0.0
2017-Sep-18 09:00N 28°09' W 015°25'0 0.0
2017-Sep-18 08:30N 28°09' W 015°25'0 0.0
2017-Sep-18 08:00N 28°09' W 015°25'0 0.0
2017-Sep-18 07:30N 28°09' W 015°25'0 0.1
2017-Sep-18 07:00N 28°09' W 015°25'3 5.4
2017-Sep-18 06:30N 28°06' W 015°23'0 0.9
2017-Sep-18 06:00N 28°07' W 015°23'4 8.5
2017-Sep-18 05:30N 28°08' W 015°18'612.1
2017-Sep-18 05:00N 28°09' W 015°11'611.8
2017-Sep-18 04:30N 28°10' W 015°04'510.9
2017-Sep-18 04:00N 28°13' W 014°59'611.9
2017-Sep-18 03:30N 28°18' W 014°57'612.0
2017-Sep-18 03:00N 28°23' W 014°53'611.5
2017-Sep-18 02:30N 28°28' W 014°49'611.8
2017-Sep-18 02:00N 28°32' W 014°44'713.9
2017-Sep-18 01:30N 28°37' W 014°39'713.8
2017-Sep-18 01:00N 28°43' W 014°34'713.5
2017-Sep-18 00:30N 28°48' W 014°30'713.6
2017-Sep-17 23:58N 28°54' W 014°24'713.7
2017-Sep-17 23:29N 28°59' W 014°20'713.6
2017-Sep-17 23:00N 29°04' W 014°15'714.0
2017-Sep-17 22:30N 29°09' W 014°10'714.0
2017-Sep-17 21:59N 29°15' W 014°04'714.2
2017-Sep-17 21:29N 29°20' W 013°59'714.1
2017-Sep-17 21:00N 29°26' W 013°54'714.3
2017-Sep-17 20:30N 29°31' W 013°49'  
2017-Sep-14 20:07N 36°54' W 006°21'76 1.9
2017-Sep-13 03:43N 35°45' W 006°60'312.0
2017-Sep-13 03:30N 35°42' W 007°00'1512.5
2017-Sep-13 02:17N 35°27' W 007°04'1712.6
2017-Sep-13 00:58N 35°11' W 007°09'612.7
2017-Sep-13 00:31N 35°05' W 007°10'612.7
2017-Sep-13 00:01N 34°59' W 007°13'612.6
2017-Sep-12 23:30N 34°53' W 007°14'4912.3
2017-Sep-12 19:31N 34°06' W 007°29'011.7
2017-Sep-12 19:29N 34°05' W 007°29'143 5.5
2017-Sep-11 17:26N 32°39' W 009°45'33710.3
2017-Sep-10 08:46N 29°09' W 014°52'410.4
2017-Sep-10 08:24N 29°07' W 014°56'510.2
2017-Sep-10 07:54N 29°03' W 015°00'410.0
2017-Sep-10 07:27N 29°00' W 015°04'5 9.9
2017-Sep-10 06:56N 28°57' W 015°09'5 9.9
2017-Sep-10 06:29N 28°55' W 015°13'510.0
2017-Sep-10 06:00N 28°52' W 015°17'5 9.8
2017-Sep-10 05:30N 28°49' W 015°22'510.0
2017-Sep-10 05:00N 28°46' W 015°26'510.0
2017-Sep-10 04:30N 28°43' W 015°31'5 9.9
2017-Sep-10 04:00N 28°39' W 015°35'510.0
2017-Sep-10 03:30N 28°36' W 015°39'510.1
2017-Sep-10 03:00N 28°33' W 015°43'510.0
2017-Sep-10 02:30N 28°29' W 015°47'5 9.7
2017-Sep-10 02:00N 28°25' W 015°51'4 9.0
2017-Sep-10 01:30N 28°23' W 015°55'5 9.9
2017-Sep-10 01:00N 28°23' W 016°00'510.3
2017-Sep-10 00:30N 28°25' W 016°06'510.7
2017-Sep-10 00:00N 28°27' W 016°11'3 4.5
2017-Sep-09 23:24N 28°29' W 016°13'0 0.0
2017-Sep-09 22:57N 28°29' W 016°13'0 0.0
2017-Sep-09 22:27N 28°29' W 016°13'0 0.0
2017-Sep-09 21:54N 28°29' W 016°13'0 0.0
2017-Sep-09 21:24N 28°29' W 016°13'0 0.0
2017-Sep-09 20:57N 28°29' W 016°13'0 0.0
2017-Sep-09 20:24N 28°29' W 016°13'0 0.0
2017-Sep-09 19:57N 28°29' W 016°13'0 0.0
2017-Sep-09 19:30N 28°29' W 016°13'  

Dump ship's entire track history